sensor_id;sensor_type;location;lat;lon;timestamp;pressure;altitude;pressure_sealevel;temperature;humidity
73063;BME280;61230;46.328;19.972;2023-04-30T00:00:12;100392.69;;;10.11;94.27
73063;BME280;61230;46.328;19.972;2023-04-30T00:02:40;100392.03;;;10.18;93.75
73063;BME280;61230;46.328;19.972;2023-04-30T00:05:08;100345.78;;;10.06;93.40
73063;BME280;61230;46.328;19.972;2023-04-30T00:07:36;100387.31;;;10.41;92.90
73063;BME280;61230;46.328;19.972;2023-04-30T00:10:04;100341.78;;;10.12;92.68
73063;BME280;61230;46.328;19.972;2023-04-30T00:12:32;100361.88;;;10.13;93.38
73063;BME280;61230;46.328;19.972;2023-04-30T00:15:00;100381.78;;;10.25;93.85
73063;BME280;61230;46.328;19.972;2023-04-30T00:17:28;100384.56;;;10.23;93.86
73063;BME280;61230;46.328;19.972;2023-04-30T00:19:56;100372.53;;;10.21;93.56
73063;BME280;61230;46.328;19.972;2023-04-30T00:22:23;100383.88;;;10.21;94.17
73063;BME280;61230;46.328;19.972;2023-04-30T00:24:54;100330.44;;;9.92;93.95
73063;BME280;61230;46.328;19.972;2023-04-30T00:27:21;100377.06;;;10.09;95.05
73063;BME280;61230;46.328;19.972;2023-04-30T00:29:49;100377.22;;;10.17;94.23
73063;BME280;61230;46.328;19.972;2023-04-30T00:32:17;100373.22;;;10.23;95.27
73063;BME280;61230;46.328;19.972;2023-04-30T00:34:45;100373.91;;;10.25;96.41
73063;BME280;61230;46.328;19.972;2023-04-30T00:37:13;100374.88;;;10.14;96.21
73063;BME280;61230;46.328;19.972;2023-04-30T00:39:41;100329.19;;;9.58;96.31
73063;BME280;61230;46.328;19.972;2023-04-30T00:42:08;100372.09;;;9.87;97.00
73063;BME280;61230;46.328;19.972;2023-04-30T00:44:36;100374.28;;;9.92;96.04
73063;BME280;61230;46.328;19.972;2023-04-30T00:47:04;100378.16;;;9.97;96.95
73063;BME280;61230;46.328;19.972;2023-04-30T00:49:31;100374.69;;;9.97;96.42
73063;BME280;61230;46.328;19.972;2023-04-30T00:51:59;100377.06;;;10.00;96.85
73063;BME280;61230;46.328;19.972;2023-04-30T00:54:28;100373.03;;;10.05;97.15
73063;BME280;61230;46.328;19.972;2023-04-30T00:56:57;100365.44;;;10.02;97.05
73063;BME280;61230;46.328;19.972;2023-04-30T00:59:25;100372.50;;;10.11;96.69
73063;BME280;61230;46.328;19.972;2023-04-30T01:01:53;100374.31;;;10.20;96.65
73063;BME280;61230;46.328;19.972;2023-04-30T01:04:21;100376.28;;;10.18;96.39
73063;BME280;61230;46.328;19.972;2023-04-30T01:06:50;100327.81;;;9.82;96.15
73063;BME280;61230;46.328;19.972;2023-04-30T01:09:18;100367.66;;;10.07;95.77
73063;BME280;61230;46.328;19.972;2023-04-30T01:12:15;100313.97;;;9.61;96.56
73063;BME280;61230;46.328;19.972;2023-04-30T01:14:58;100365.16;;;9.96;96.58
73063;BME280;61230;46.328;19.972;2023-04-30T01:17:42;100352.00;;;9.76;98.07
73063;BME280;61230;46.328;19.972;2023-04-30T01:20:11;100364.88;;;9.79;97.95
73063;BME280;61230;46.328;19.972;2023-04-30T01:22:54;100366.53;;;9.80;97.66
73063;BME280;61230;46.328;19.972;2023-04-30T01:28:04;100372.34;;;9.94;96.89
73063;BME280;61230;46.328;19.972;2023-04-30T01:30:34;100361.28;;;9.80;97.79
73063;BME280;61230;46.328;19.972;2023-04-30T01:33:02;100367.09;;;9.94;97.46
73063;BME280;61230;46.328;19.972;2023-04-30T01:40:48;100372.50;;;10.11;96.55
73063;BME280;61230;46.328;19.972;2023-04-30T01:51:44;100318.13;;;9.93;96.38
73063;BME280;61230;46.328;19.972;2023-04-30T01:57:13;100358.00;;;10.17;95.80
73063;BME280;61230;46.328;19.972;2023-04-30T01:59:43;100361.84;;;10.32;95.42
73063;BME280;61230;46.328;19.972;2023-04-30T02:02:12;100355.47;;;10.34;95.51
73063;BME280;61230;46.328;19.972;2023-04-30T02:04:40;100348.28;;;10.46;95.65
73063;BME280;61230;46.328;19.972;2023-04-30T02:07:07;100353.81;;;10.53;95.29
73063;BME280;61230;46.328;19.972;2023-04-30T02:09:35;100353.66;;;10.54;95.13
73063;BME280;61230;46.328;19.972;2023-04-30T02:12:03;100366.53;;;10.57;94.64
73063;BME280;61230;46.328;19.972;2023-04-30T02:14:32;100360.97;;;10.60;94.57
73063;BME280;61230;46.328;19.972;2023-04-30T02:16:59;100355.31;;;10.55;95.07
73063;BME280;61230;46.328;19.972;2023-04-30T02:19:27;100352.13;;;10.52;93.91
73063;BME280;61230;46.328;19.972;2023-04-30T02:21:55;100349.78;;;10.58;94.04
73063;BME280;61230;46.328;19.972;2023-04-30T02:24:23;100356.69;;;10.59;93.98
73063;BME280;61230;46.328;19.972;2023-04-30T02:26:50;100300.41;;;10.33;93.80
73063;BME280;61230;46.328;19.972;2023-04-30T02:29:18;100309.38;;;10.30;93.80
73063;BME280;61230;46.328;19.972;2023-04-30T02:31:46;100359.59;;;10.56;93.83
73063;BME280;61230;46.328;19.972;2023-04-30T02:34:14;100311.22;;;10.20;93.69
73063;BME280;61230;46.328;19.972;2023-04-30T02:36:41;100358.66;;;10.38;93.97
73063;BME280;61230;46.328;19.972;2023-04-30T02:39:09;100312.34;;;10.18;93.37
73063;BME280;61230;46.328;19.972;2023-04-30T02:41:37;100360.84;;;10.52;93.33
73063;BME280;61230;46.328;19.972;2023-04-30T02:44:05;100368.34;;;10.47;93.68
73063;BME280;61230;46.328;19.972;2023-04-30T02:46:33;100367.81;;;10.34;94.52
73063;BME280;61230;46.328;19.972;2023-04-30T02:49:01;100368.09;;;10.21;94.97
73063;BME280;61230;46.328;19.972;2023-04-30T02:51:28;100328.37;;;9.86;96.45
73063;BME280;61230;46.328;19.972;2023-04-30T02:53:56;100372.53;;;10.21;96.17
73063;BME280;61230;46.328;19.972;2023-04-30T02:56:23;100371.81;;;10.19;95.91
73063;BME280;61230;46.328;19.972;2023-04-30T02:58:51;100374.16;;;10.22;95.61
73063;BME280;61230;46.328;19.972;2023-04-30T03:01:19;100331.41;;;10.01;95.24
73063;BME280;61230;46.328;19.972;2023-04-30T03:03:46;100388.12;;;10.42;95.01
73063;BME280;61230;46.328;19.972;2023-04-30T03:06:14;100394.50;;;10.39;94.54
73063;BME280;61230;46.328;19.972;2023-04-30T03:08:42;100385.38;;;10.43;95.09
73063;BME280;61230;46.328;19.972;2023-04-30T03:11:10;100393.69;;;10.38;94.33
73063;BME280;61230;46.328;19.972;2023-04-30T03:13:37;100396.19;;;10.50;95.20
73063;BME280;61230;46.328;19.972;2023-04-30T03:16:05;100400.16;;;10.54;95.27
73063;BME280;61230;46.328;19.972;2023-04-30T03:18:33;100393.00;;;10.56;95.46
73063;BME280;61230;46.328;19.972;2023-04-30T03:21:00;100399.75;;;10.49;95.80
73063;BME280;61230;46.328;19.972;2023-04-30T03:23:28;100413.19;;;10.46;95.97
73063;BME280;61230;46.328;19.972;2023-04-30T03:25:56;100406.16;;;10.27;97.33
73063;BME280;61230;46.328;19.972;2023-04-30T03:28:23;100404.62;;;10.34;95.85
73063;BME280;61230;46.328;19.972;2023-04-30T03:30:51;100397.41;;;10.46;96.41
73063;BME280;61230;46.328;19.972;2023-04-30T03:33:19;100398.81;;;10.50;95.92
73063;BME280;61230;46.328;19.972;2023-04-30T03:35:46;100402.00;;;10.44;95.83
73063;BME280;61230;46.328;19.972;2023-04-30T03:38:16;100395.91;;;10.53;95.29
73063;BME280;61230;46.328;19.972;2023-04-30T03:40:44;100401.28;;;10.61;94.54
73063;BME280;61230;46.328;19.972;2023-04-30T03:43:12;100408.72;;;10.65;93.72
73063;BME280;61230;46.328;19.972;2023-04-30T03:45:39;100410.00;;;10.61;92.92
73063;BME280;61230;46.328;19.972;2023-04-30T03:48:07;100406.78;;;10.67;92.50
73063;BME280;61230;46.328;19.972;2023-04-30T03:50:36;100355.31;;;10.36;92.55
73063;BME280;61230;46.328;19.972;2023-04-30T03:53:03;100403.59;;;10.73;92.35
73063;BME280;61230;46.328;19.972;2023-04-30T03:55:32;100404.69;;;10.80;92.04
73063;BME280;61230;46.328;19.972;2023-04-30T03:58:00;100407.31;;;10.80;92.20
73063;BME280;61230;46.328;19.972;2023-04-30T04:00:28;100407.88;;;10.74;92.77
73063;BME280;61230;46.328;19.972;2023-04-30T04:02:58;100414.28;;;10.72;92.66
73063;BME280;61230;46.328;19.972;2023-04-30T04:05:27;100422.28;;;10.89;92.09
73063;BME280;61230;46.328;19.972;2023-04-30T04:07:56;100422.94;;;10.91;92.17
73063;BME280;61230;46.328;19.972;2023-04-30T04:10:23;100422.41;;;10.88;92.41
73063;BME280;61230;46.328;19.972;2023-04-30T04:12:51;100380.91;;;10.63;90.62
73063;BME280;61230;46.328;19.972;2023-04-30T04:15:19;100379.94;;;10.64;89.76
73063;BME280;61230;46.328;19.972;2023-04-30T04:17:47;100410.19;;;10.87;88.47
73063;BME280;61230;46.328;19.972;2023-04-30T04:20:15;100435.38;;;10.99;86.80
73063;BME280;61230;46.328;19.972;2023-04-30T04:22:43;100439.41;;;11.03;86.86
73063;BME280;61230;46.328;19.972;2023-04-30T04:25:11;100439.22;;;11.24;87.79
73063;BME280;61230;46.328;19.972;2023-04-30T04:27:42;100440.81;;;11.34;86.80
73063;BME280;61230;46.328;19.972;2023-04-30T04:30:10;100399.53;;;10.88;86.43
73063;BME280;61230;46.328;19.972;2023-04-30T04:32:38;100448.84;;;11.33;86.69
73063;BME280;61230;46.328;19.972;2023-04-30T04:35:16;100456.06;;;11.40;86.84
73063;BME280;61230;46.328;19.972;2023-04-30T04:37:45;100454.22;;;11.41;87.18
73063;BME280;61230;46.328;19.972;2023-04-30T04:40:13;100459.00;;;11.28;88.38
73063;BME280;61230;46.328;19.972;2023-04-30T04:42:41;100467.00;;;11.36;88.54
73063;BME280;61230;46.328;19.972;2023-04-30T04:45:09;100457.87;;;11.30;88.17
73063;BME280;61230;46.328;19.972;2023-04-30T04:47:37;100456.25;;;11.29;88.22
73063;BME280;61230;46.328;19.972;2023-04-30T04:50:06;100399.34;;;11.09;88.61
73063;BME280;61230;46.328;19.972;2023-04-30T04:52:34;100462.94;;;11.51;89.05
73063;BME280;61230;46.328;19.972;2023-04-30T04:55:03;100436.41;;;11.35;89.46
73063;BME280;61230;46.328;19.972;2023-04-30T04:57:31;100469.97;;;11.60;88.62
73063;BME280;61230;46.328;19.972;2023-04-30T04:59:59;100416.00;;;11.37;88.19
73063;BME280;61230;46.328;19.972;2023-04-30T05:02:27;100460.91;;;11.72;88.57
73063;BME280;61230;46.328;19.972;2023-04-30T05:04:55;100475.00;;;11.53;89.68
73063;BME280;61230;46.328;19.972;2023-04-30T05:07:23;100479.94;;;11.29;91.42
73063;BME280;61230;46.328;19.972;2023-04-30T05:09:50;100472.53;;;11.42;91.21
73063;BME280;61230;46.328;19.972;2023-04-30T05:12:18;100477.03;;;11.60;90.14
73063;BME280;61230;46.328;19.972;2023-04-30T05:14:46;100428.53;;;11.16;90.62
73063;BME280;61230;46.328;19.972;2023-04-30T05:17:15;100486.97;;;11.38;91.71
73063;BME280;61230;46.328;19.972;2023-04-30T05:19:51;100487.66;;;11.40;90.70
73063;BME280;61230;46.328;19.972;2023-04-30T05:22:19;100488.69;;;11.20;92.56
73063;BME280;61230;46.328;19.972;2023-04-30T05:24:47;100495.59;;;11.31;91.83
73063;BME280;61230;46.328;19.972;2023-04-30T05:27:15;100450.84;;;11.21;90.85
73063;BME280;61230;46.328;19.972;2023-04-30T05:29:43;100492.75;;;11.51;89.95
73063;BME280;61230;46.328;19.972;2023-04-30T05:32:11;100495.22;;;11.63;89.59
73063;BME280;61230;46.328;19.972;2023-04-30T05:34:39;100493.16;;;11.57;90.34
73063;BME280;61230;46.328;19.972;2023-04-30T05:37:06;100500.28;;;11.37;90.20
73063;BME280;61230;46.328;19.972;2023-04-30T05:39:34;100454.09;;;11.06;90.12
73063;BME280;61230;46.328;19.972;2023-04-30T05:42:01;100461.38;;;11.21;90.47
73063;BME280;61230;46.328;19.972;2023-04-30T05:44:30;100498.44;;;11.47;90.22
73063;BME280;61230;46.328;19.972;2023-04-30T05:46:57;100500.66;;;11.51;90.26
73063;BME280;61230;46.328;19.972;2023-04-30T05:49:25;100501.28;;;11.73;89.23
73063;BME280;61230;46.328;19.972;2023-04-30T05:51:54;100507.94;;;11.77;88.92
73063;BME280;61230;46.328;19.972;2023-04-30T05:54:21;100506.28;;;11.66;89.88
73063;BME280;61230;46.328;19.972;2023-04-30T05:56:49;100517.06;;;11.82;89.24
73063;BME280;61230;46.328;19.972;2023-04-30T05:59:17;100517.63;;;11.67;89.01
73063;BME280;61230;46.328;19.972;2023-04-30T06:01:45;100510.09;;;11.54;89.68
73063;BME280;61230;46.328;19.972;2023-04-30T06:04:13;100464.41;;;11.63;88.61
73063;BME280;61230;46.328;19.972;2023-04-30T06:06:40;100514.69;;;12.06;87.76
73063;BME280;61230;46.328;19.972;2023-04-30T06:09:08;100514.69;;;12.34;86.60
73063;BME280;61230;46.328;19.972;2023-04-30T06:11:37;100509.19;;;12.62;84.85
73063;BME280;61230;46.328;19.972;2023-04-30T06:14:09;100518.56;;;13.00;83.37
73063;BME280;61230;46.328;19.972;2023-04-30T06:16:37;100476.28;;;13.00;81.75
73063;BME280;61230;46.328;19.972;2023-04-30T06:19:04;100530.03;;;13.60;80.44
73063;BME280;61230;46.328;19.972;2023-04-30T06:21:32;100523.03;;;13.85;79.34
73063;BME280;61230;46.328;19.972;2023-04-30T06:23:59;100530.97;;;13.85;77.18
73063;BME280;61230;46.328;19.972;2023-04-30T06:26:27;100526.25;;;14.38;74.37
73063;BME280;61230;46.328;19.972;2023-04-30T06:28:55;100520.59;;;14.33;73.78
73063;BME280;61230;46.328;19.972;2023-04-30T06:31:23;100517.63;;;14.36;71.17
73063;BME280;61230;46.328;19.972;2023-04-30T06:33:50;100518.50;;;14.61;71.29
73063;BME280;61230;46.328;19.972;2023-04-30T06:36:18;100513.06;;;14.87;70.96
73063;BME280;61230;46.328;19.972;2023-04-30T06:38:46;100522.63;;;15.04;70.69
73063;BME280;61230;46.328;19.972;2023-04-30T06:41:14;100523.97;;;15.08;69.54
73063;BME280;61230;46.328;19.972;2023-04-30T06:43:42;100522.97;;;15.09;67.50
73063;BME280;61230;46.328;19.972;2023-04-30T06:46:11;100479.28;;;14.73;67.84
73063;BME280;61230;46.328;19.972;2023-04-30T06:48:38;100522.91;;;15.41;67.54
73063;BME280;61230;46.328;19.972;2023-04-30T06:51:06;100522.91;;;15.41;66.93
73063;BME280;61230;46.328;19.972;2023-04-30T06:53:37;100524.94;;;15.31;65.79
73063;BME280;61230;46.328;19.972;2023-04-30T06:56:04;100525.06;;;15.54;65.65
73063;BME280;61230;46.328;19.972;2023-04-30T06:58:32;100531.47;;;15.76;65.83
73063;BME280;61230;46.328;19.972;2023-04-30T07:01:00;100518.97;;;15.37;65.66
73063;BME280;61230;46.328;19.972;2023-04-30T07:03:28;100526.84;;;15.70;64.62
73063;BME280;61230;46.328;19.972;2023-04-30T07:05:56;100486.34;;;15.76;63.80
73063;BME280;61230;46.328;19.972;2023-04-30T07:08:24;100531.69;;;15.58;65.67
73063;BME280;61230;46.328;19.972;2023-04-30T07:10:52;100533.09;;;15.85;63.88
73063;BME280;61230;46.328;19.972;2023-04-30T07:13:19;100535.59;;;15.78;63.23
73063;BME280;61230;46.328;19.972;2023-04-30T07:15:47;100529.63;;;15.84;63.11
73063;BME280;61230;46.328;19.972;2023-04-30T07:18:14;100543.69;;;15.93;63.67
73063;BME280;61230;46.328;19.972;2023-04-30T07:20:42;100497.81;;;16.07;63.39
73063;BME280;61230;46.328;19.972;2023-04-30T07:23:10;100524.44;;;16.52;62.89
73063;BME280;61230;46.328;19.972;2023-04-30T07:25:38;100520.00;;;16.22;62.58
73063;BME280;61230;46.328;19.972;2023-04-30T07:28:06;100537.78;;;16.14;62.83
73063;BME280;61230;46.328;19.972;2023-04-30T07:30:33;100534.44;;;16.20;63.42
73063;BME280;61230;46.328;19.972;2023-04-30T07:33:01;100544.06;;;16.51;60.55
73063;BME280;61230;46.328;19.972;2023-04-30T07:35:29;100552.94;;;16.05;59.57
73063;BME280;61230;46.328;19.972;2023-04-30T07:37:57;100537.06;;;16.28;61.22
73063;BME280;61230;46.328;19.972;2023-04-30T07:40:25;100549.75;;;16.71;59.72
73063;BME280;61230;46.328;19.972;2023-04-30T07:43:03;100540.19;;;16.85;58.98
73063;BME280;61230;46.328;19.972;2023-04-30T07:45:32;100546.91;;;16.95;58.79
73063;BME280;61230;46.328;19.972;2023-04-30T07:48:01;100546.69;;;16.82;58.48
73063;BME280;61230;46.328;19.972;2023-04-30T07:50:30;100543.94;;;17.13;57.94
73063;BME280;61230;46.328;19.972;2023-04-30T07:53:00;100546.00;;;17.40;57.85
73063;BME280;61230;46.328;19.972;2023-04-30T07:55:28;100548.22;;;17.37;57.44
73063;BME280;61230;46.328;19.972;2023-04-30T07:57:56;100546.63;;;17.65;56.38
73063;BME280;61230;46.328;19.972;2023-04-30T08:00:24;100549.34;;;17.86;55.93
73063;BME280;61230;46.328;19.972;2023-04-30T08:02:53;100504.41;;;17.10;56.01
73063;BME280;61230;46.328;19.972;2023-04-30T08:05:20;100548.06;;;17.97;55.25
73063;BME280;61230;46.328;19.972;2023-04-30T08:07:48;100556.09;;;17.30;55.39
73063;BME280;61230;46.328;19.972;2023-04-30T08:10:16;100546.72;;;17.34;56.31
73063;BME280;61230;46.328;19.972;2023-04-30T08:12:43;100549.09;;;17.66;56.90
73063;BME280;61230;46.328;19.972;2023-04-30T08:15:11;100550.19;;;17.20;56.99
73063;BME280;61230;46.328;19.972;2023-04-30T08:17:39;100553.84;;;17.86;56.04
73063;BME280;61230;46.328;19.972;2023-04-30T08:20:07;100550.22;;;17.49;56.26
73063;BME280;61230;46.328;19.972;2023-04-30T08:22:35;100560.94;;;18.08;55.33
73063;BME280;61230;46.328;19.972;2023-04-30T08:25:03;100559.25;;;18.21;54.13
73063;BME280;61230;46.328;19.972;2023-04-30T08:27:31;100559.31;;;18.28;52.57
73063;BME280;61230;46.328;19.972;2023-04-30T08:29:59;100550.41;;;18.50;52.88
73063;BME280;61230;46.328;19.972;2023-04-30T08:32:27;100548.94;;;18.33;53.06
73063;BME280;61230;46.328;19.972;2023-04-30T08:34:55;100545.78;;;18.44;52.14
73063;BME280;61230;46.328;19.972;2023-04-30T08:37:22;100478.69;;;17.69;52.85
73063;BME280;61230;46.328;19.972;2023-04-30T08:39:50;100514.72;;;18.15;54.07
73063;BME280;61230;46.328;19.972;2023-04-30T08:42:20;100559.37;;;18.49;52.78
73063;BME280;61230;46.328;19.972;2023-04-30T08:44:51;100554.59;;;18.80;52.61
73063;BME280;61230;46.328;19.972;2023-04-30T08:47:19;100547.53;;;18.52;53.48
73063;BME280;61230;46.328;19.972;2023-04-30T08:49:47;100512.44;;;18.48;54.16
73063;BME280;61230;46.328;19.972;2023-04-30T08:52:17;100547.03;;;18.84;53.20
73063;BME280;61230;46.328;19.972;2023-04-30T08:54:46;100554.00;;;19.06;52.13
73063;BME280;61230;46.328;19.972;2023-04-30T08:57:13;100542.78;;;18.32;53.90
73063;BME280;61230;46.328;19.972;2023-04-30T08:59:44;100554.06;;;18.91;53.52
73063;BME280;61230;46.328;19.972;2023-04-30T09:02:13;100549.06;;;19.03;52.72
73063;BME280;61230;46.328;19.972;2023-04-30T09:04:41;100546.69;;;19.15;53.51
73063;BME280;61230;46.328;19.972;2023-04-30T09:07:09;100551.47;;;19.75;52.07
73063;BME280;61230;46.328;19.972;2023-04-30T09:09:41;100546.88;;;19.13;51.66
73063;BME280;61230;46.328;19.972;2023-04-30T09:15:02;100529.53;;;19.92;50.44
73063;BME280;61230;46.328;19.972;2023-04-30T09:17:31;100545.34;;;19.25;51.96
73063;BME280;61230;46.328;19.972;2023-04-30T09:20:10;100539.44;;;19.98;51.21
73063;BME280;61230;46.328;19.972;2023-04-30T09:22:40;100525.25;;;19.91;50.21
73063;BME280;61230;46.328;19.972;2023-04-30T09:25:09;100524.69;;;20.76;49.30
73063;BME280;61230;46.328;19.972;2023-04-30T09:27:37;100529.00;;;20.64;51.22
73063;BME280;61230;46.328;19.972;2023-04-30T09:30:05;100528.00;;;20.85;52.37
73063;BME280;61230;46.328;19.972;2023-04-30T09:32:34;100483.28;;;20.33;53.38
73063;BME280;61230;46.328;19.972;2023-04-30T09:35:02;100485.81;;;20.93;52.19
73063;BME280;61230;46.328;19.972;2023-04-30T09:37:39;100513.72;;;20.32;52.99
73063;BME280;61230;46.328;19.972;2023-04-30T09:40:07;100508.25;;;20.79;52.35
73063;BME280;61230;46.328;19.972;2023-04-30T09:42:35;100481.34;;;20.14;53.15
73063;BME280;61230;46.328;19.972;2023-04-30T09:45:04;100520.50;;;20.41;53.57
73063;BME280;61230;46.328;19.972;2023-04-30T09:47:31;100525.44;;;20.44;53.73
73063;BME280;61230;46.328;19.972;2023-04-30T09:49:59;100521.97;;;20.37;54.30
73063;BME280;61230;46.328;19.972;2023-04-30T09:52:27;100490.53;;;19.98;53.88
73063;BME280;61230;46.328;19.972;2023-04-30T09:54:55;100523.19;;;19.93;54.84
73063;BME280;61230;46.328;19.972;2023-04-30T09:57:23;100482.88;;;19.41;56.84
73063;BME280;61230;46.328;19.972;2023-04-30T09:59:51;100521.81;;;19.63;57.22
73063;BME280;61230;46.328;19.972;2023-04-30T10:02:21;100526.38;;;19.69;55.85
73063;BME280;61230;46.328;19.972;2023-04-30T10:04:54;100522.44;;;19.65;55.97
73063;BME280;61230;46.328;19.972;2023-04-30T10:07:29;100518.94;;;19.37;56.44
73063;BME280;61230;46.328;19.972;2023-04-30T10:10:01;100515.22;;;19.59;56.86
73063;BME280;61230;46.328;19.972;2023-04-30T10:12:53;100473.75;;;20.11;55.17
73063;BME280;61230;46.328;19.972;2023-04-30T10:15:37;100504.97;;;20.77;53.72
73063;BME280;61230;46.328;19.972;2023-04-30T10:18:12;100508.47;;;21.24;52.31
73063;BME280;61230;46.328;19.972;2023-04-30T10:20:41;100506.38;;;21.06;51.33
73063;BME280;61230;46.328;19.972;2023-04-30T10:23:11;100498.13;;;21.47;50.23
73063;BME280;61230;46.328;19.972;2023-04-30T10:25:40;100482.91;;;21.41;49.94
73063;BME280;61230;46.328;19.972;2023-04-30T10:28:08;100489.56;;;21.83;48.73
73063;BME280;61230;46.328;19.972;2023-04-30T10:30:35;100489.50;;;22.09;47.67
73063;BME280;61230;46.328;19.972;2023-04-30T10:35:56;100487.94;;;20.24;50.46
73063;BME280;61230;46.328;19.972;2023-04-30T10:38:29;100490.56;;;21.31;49.19
73063;BME280;61230;46.328;19.972;2023-04-30T10:41:00;100480.87;;;21.30;49.00
73063;BME280;61230;46.328;19.972;2023-04-30T10:43:30;100440.66;;;21.56;46.81
73063;BME280;61230;46.328;19.972;2023-04-30T10:45:58;100474.47;;;21.37;47.43
73063;BME280;61230;46.328;19.972;2023-04-30T10:48:27;100467.69;;;22.68;44.79
73063;BME280;61230;46.328;19.972;2023-04-30T10:50:58;100465.41;;;22.40;45.57
73063;BME280;61230;46.328;19.972;2023-04-30T10:53:29;100456.78;;;22.63;43.22
73063;BME280;61230;46.328;19.972;2023-04-30T10:56:02;100465.53;;;22.20;43.52
73063;BME280;61230;46.328;19.972;2023-04-30T10:58:37;100465.62;;;21.04;46.11
73063;BME280;61230;46.328;19.972;2023-04-30T11:01:08;100418.94;;;20.93;45.55
73063;BME280;61230;46.328;19.972;2023-04-30T11:03:40;100464.22;;;21.28;44.52
73063;BME280;61230;46.328;19.972;2023-04-30T11:06:15;100457.59;;;21.30;44.29
73063;BME280;61230;46.328;19.972;2023-04-30T11:08:47;100458.66;;;21.23;46.18
73063;BME280;61230;46.328;19.972;2023-04-30T11:11:18;100449.78;;;21.29;46.38
73063;BME280;61230;46.328;19.972;2023-04-30T11:13:59;100457.00;;;21.28;47.78
73063;BME280;61230;46.328;19.972;2023-04-30T11:16:33;100461.09;;;20.52;50.77
73063;BME280;61230;46.328;19.972;2023-04-30T11:19:13;100416.47;;;21.05;49.77
73063;BME280;61230;46.328;19.972;2023-04-30T11:27:31;100456.59;;;20.98;51.17
73063;BME280;61230;46.328;19.972;2023-04-30T11:30:02;100457.81;;;20.70;52.17
73063;BME280;61230;46.328;19.972;2023-04-30T11:32:33;100459.94;;;20.07;53.37
73063;BME280;61230;46.328;19.972;2023-04-30T11:35:04;100469.91;;;19.79;52.27
73063;BME280;61230;46.328;19.972;2023-04-30T11:37:37;100441.88;;;20.02;51.81
73063;BME280;61230;46.328;19.972;2023-04-30T11:40:10;100463.84;;;20.04;52.07
73063;BME280;61230;46.328;19.972;2023-04-30T11:42:40;100449.59;;;20.32;51.34
73063;BME280;61230;46.328;19.972;2023-04-30T11:45:15;100422.16;;;20.17;51.35
73063;BME280;61230;46.328;19.972;2023-04-30T11:47:51;100459.06;;;19.80;55.45
73063;BME280;61230;46.328;19.972;2023-04-30T11:50:23;100453.38;;;20.03;54.40
73063;BME280;61230;46.328;19.972;2023-04-30T11:52:56;100418.81;;;19.88;54.36
73063;BME280;61230;46.328;19.972;2023-04-30T11:55:25;100458.19;;;19.67;55.45
73063;BME280;61230;46.328;19.972;2023-04-30T11:57:55;100465.72;;;19.57;55.21
73063;BME280;61230;46.328;19.972;2023-04-30T12:00:28;100416.16;;;19.41;55.65
73063;BME280;61230;46.328;19.972;2023-04-30T12:02:59;100443.25;;;19.85;55.01
73063;BME280;61230;46.328;19.972;2023-04-30T12:05:27;100454.59;;;20.00;54.01
73063;BME280;61230;46.328;19.972;2023-04-30T12:08:02;100437.97;;;20.05;53.50
73063;BME280;61230;46.328;19.972;2023-04-30T12:10:33;100435.97;;;20.27;52.28
73063;BME280;61230;46.328;19.972;2023-04-30T12:13:01;100436.03;;;20.53;52.52
73063;BME280;61230;46.328;19.972;2023-04-30T12:15:28;100421.31;;;21.54;49.25
73063;BME280;61230;46.328;19.972;2023-04-30T12:17:58;100427.31;;;22.31;46.93
73063;BME280;61230;46.328;19.972;2023-04-30T12:20:28;100428.13;;;22.88;46.30
73063;BME280;61230;46.328;19.972;2023-04-30T12:22:57;100430.25;;;23.04;45.36
73063;BME280;61230;46.328;19.972;2023-04-30T12:25:27;100422.47;;;22.47;43.81
73063;BME280;61230;46.328;19.972;2023-04-30T12:27:58;100424.81;;;23.11;40.94
73063;BME280;61230;46.328;19.972;2023-04-30T12:30:26;100390.22;;;22.53;41.02
73063;BME280;61230;46.328;19.972;2023-04-30T12:32:57;100410.25;;;22.19;40.63
73063;BME280;61230;46.328;19.972;2023-04-30T12:35:27;100415.34;;;22.59;41.28
73063;BME280;61230;46.328;19.972;2023-04-30T12:38:03;100423.16;;;22.60;41.79
73063;BME280;61230;46.328;19.972;2023-04-30T12:40:31;100391.34;;;21.76;43.06
73063;BME280;61230;46.328;19.972;2023-04-30T12:43:00;100415.12;;;21.47;45.41
73063;BME280;61230;46.328;19.972;2023-04-30T12:45:50;100419.13;;;20.92;47.81
73063;BME280;61230;46.328;19.972;2023-04-30T12:48:20;100425.94;;;20.55;48.94
73063;BME280;61230;46.328;19.972;2023-04-30T12:50:59;100394.78;;;20.01;53.46
73063;BME280;61230;46.328;19.972;2023-04-30T12:53:31;100420.47;;;19.96;55.78
73063;BME280;61230;46.328;19.972;2023-04-30T12:56:13;100423.16;;;19.48;58.27
73063;BME280;61230;46.328;19.972;2023-04-30T12:58:45;100421.16;;;19.23;59.64
73063;BME280;61230;46.328;19.972;2023-04-30T13:01:20;100430.91;;;19.09;60.82
73063;BME280;61230;46.328;19.972;2023-04-30T13:03:50;100424.09;;;19.00;61.36
73063;BME280;61230;46.328;19.972;2023-04-30T13:06:20;100434.22;;;18.83;62.55
73063;BME280;61230;46.328;19.972;2023-04-30T13:08:48;100443.87;;;18.42;63.56
73063;BME280;61230;46.328;19.972;2023-04-30T13:11:25;100444.22;;;18.54;64.19
73063;BME280;61230;46.328;19.972;2023-04-30T13:13:54;100405.28;;;18.53;64.44
73063;BME280;61230;46.328;19.972;2023-04-30T13:16:22;100443.66;;;18.58;63.82
73063;BME280;61230;46.328;19.972;2023-04-30T13:18:51;100444.37;;;18.73;64.80
73063;BME280;61230;46.328;19.972;2023-04-30T13:21:19;100449.94;;;19.00;63.71